Time;durP1;ratioP1;P1;durP2;ratioP2;P2;SDS_P1;SDS_P2;PMS_P1;PMS_P2;Temp;Humidity;BMP_temperature;BMP_pressure;BME280_temperature;BME280_humidity;BME280_pressure;Samples;Min_cycle;Max_cycle;Signal;HPM_P1;HPM_P2
2023/07/20 00:01:12;;;;;;;12.30;5.43;;;;;;;22.94;52.52;92201.44;4819463;29;20047;-79
2023/07/20 00:03:37;;;;;;;11.95;5.65;;;;;;;;;;4816444;29;20123;-78
2023/07/20 00:06:04;;;;;;;18.75;5.97;;;;;;;22.86;51.45;92189.22;4814756;29;20047;-78
2023/07/20 00:08:30;;;;;;;14.00;5.60;;;;;;;22.80;52.81;92191.44;4807264;29;20180;-79
2023/07/20 00:10:56;;;;;;;17.95;5.55;;;;;;;22.89;50.80;92204.47;4824106;29;20114;-79
2023/07/20 00:13:21;;;;;;;12.38;5.43;;;;;;;22.90;51.12;92208.69;4825448;29;20039;-79
2023/07/20 00:15:47;;;;;;;15.02;4.93;;;;;;;22.80;51.10;92207.44;4818828;29;20450;-79
2023/07/20 00:18:13;;;;;;;11.25;5.43;;;;;;;22.82;51.03;92209.75;4814780;29;20070;-79
2023/07/20 00:20:39;;;;;;;12.57;5.43;;;;;;;22.79;50.54;92208.59;4822992;29;20059;-78
2023/07/20 00:23:05;;;;;;;10.85;5.40;;;;;;;22.66;51.22;92205.44;4821191;29;20055;-79
2023/07/20 00:25:31;;;;;;;10.75;5.07;;;;;;;22.72;51.34;92211.22;4826701;29;20096;-78
2023/07/20 00:27:56;;;;;;;13.48;5.40;;;;;;;22.61;52.51;92207.69;4814726;29;20035;-79
2023/07/20 00:30:22;;;;;;;14.27;5.50;;;;;;;22.56;51.45;92211.44;4821683;29;20047;-78
2023/07/20 00:32:47;;;;;;;12.02;5.60;;;;;;;22.68;51.71;92215.75;4810394;29;20046;-79
2023/07/20 00:35:13;;;;;;;14.60;5.50;;;;;;;22.64;51.44;92215.69;4821197;29;20455;-78
2023/07/20 00:37:39;;;;;;;11.48;5.50;;;;;;;22.63;51.53;92216.84;4813137;29;20422;-79
2023/07/20 00:40:09;;;;;;;12.93;5.65;;;;;;;22.53;51.55;92209.50;4821545;29;20042;-79
2023/07/20 00:42:35;;;;;;;11.30;4.85;;;;;;;22.60;51.30;92212.22;4818231;29;20113;-78
2023/07/20 00:45:02;;;;;;;11.40;5.78;;;;;;;22.57;51.23;92214.88;4788714;29;20053;-78
2023/07/20 00:47:28;;;;;;;12.35;5.43;;;;;;;22.52;50.72;92212.56;4810621;29;20059;-80
2023/07/20 00:49:54;;;;;;;14.20;5.40;;;;;;;22.42;52.08;92212.06;4829483;29;20098;-79
2023/07/20 00:52:25;;;;;;;13.25;5.47;;;;;;;22.49;51.50;92210.59;4810320;29;20160;-79
2023/07/20 00:54:52;;;;;;;10.55;5.35;;;;;;;22.49;51.43;92214.03;4817711;29;20026;-79
2023/07/20 00:57:18;;;;;;;11.63;5.30;;;;;;;22.37;52.04;92216.97;4829566;29;20536;-79
2023/07/20 00:59:45;;;;;;;12.73;5.50;;;;;;;22.38;50.90;92219.28;4810406;29;20048;-79
2023/07/20 01:02:10;;;;;;;12.02;5.68;;;;;;;22.45;50.66;92213.25;4804803;29;20454;-79
2023/07/20 01:04:37;;;;;;;10.07;4.40;;;;;;;22.39;51.80;92220.03;4820164;29;20042;-79
2023/07/20 01:07:31;;;;;;;12.07;5.25;;;;;;;22.28;51.43;92222.59;4820765;29;20439;-79
2023/07/20 01:10:31;;;;;;;13.52;5.78;;;;;;;22.21;52.25;92220.63;4812246;29;20115;-79
2023/07/20 01:12:57;;;;;;;9.93;4.85;;;;;;;22.27;51.51;92222.94;4811996;29;20057;-79
2023/07/20 01:15:23;;;;;;;12.50;5.40;;;;;;;22.13;52.22;92223.53;4819466;29;20053;-78
2023/07/20 01:17:48;;;;;;;12.32;5.53;;;;;;;22.06;51.80;92229.56;4806177;29;21241;-78
2023/07/20 01:20:16;;;;;;;11.20;5.43;;;;;;;22.04;51.38;92226.47;4797074;29;20038;-78
2023/07/20 01:23:02;;;;;;;16.33;6.03;;;;;;;21.93;52.84;92220.25;4813194;29;20041;-79
2023/07/20 01:25:53;;;;;;;16.67;6.20;;;;;;;21.88;64.36;92228.59;4813712;29;20047;-79
2023/07/20 01:28:22;;;;;;;16.63;6.82;;;;;;;21.73;69.22;92228.41;4808671;29;20034;-79
2023/07/20 01:30:48;;;;;;;15.02;7.13;;;;;;;21.55;84.23;92232.75;4824259;29;20031;-79
2023/07/20 01:33:16;;;;;;;20.20;7.28;;;;;;;21.38;82.80;92224.13;4821861;29;20038;-79
2023/07/20 01:35:44;;;;;;;17.95;7.28;;;;;;;21.25;84.71;92225.44;4815068;29;20116;-79
2023/07/20 01:38:13;;;;;;;14.45;7.03;;;;;;;21.22;90.73;92223.50;4819714;29;20532;-79
2023/07/20 01:40:40;;;;;;;17.50;7.53;;;;;;;21.17;96.73;92226.47;4804433;29;20030;-79
2023/07/20 01:43:06;;;;;;;13.20;7.22;;;;;;;21.00;93.79;92225.84;4825407;29;20039;-79
2023/07/20 01:45:32;;;;;;;16.15;7.60;;;;;;;20.95;96.82;92226.16;4821922;29;20043;-79
2023/07/20 01:47:57;;;;;;;17.80;8.10;;;;;;;20.89;100.00;92229.47;4821933;29;20046;-78
2023/07/20 01:50:23;;;;;;;20.08;8.88;;;;;;;20.85;100.00;92229.44;4825979;29;20047;-79
2023/07/20 01:52:48;;;;;;;16.27;8.20;;;;;;;20.78;100.00;92237.28;4818922;29;20103;-79
2023/07/20 01:55:14;;;;;;;29.65;9.43;;;;;;;20.61;100.00;92235.09;4820283;29;20039;-79
2023/07/20 01:57:40;;;;;;;19.65;9.15;;;;;;;20.51;100.00;92234.53;4825544;29;20045;-79
2023/07/20 02:00:06;;;;;;;23.60;9.10;;;;;;;20.50;100.00;92235.66;4817956;29;20043;-79
2023/07/20 02:02:41;;;;;;;18.67;10.00;;;;;;;20.41;100.00;92231.69;4819234;29;20510;-78
2023/07/20 02:05:07;;;;;;;16.00;7.78;;;;;;;20.28;100.00;92231.06;4815025;29;20042;-80
2023/07/20 02:07:33;;;;;;;23.50;9.85;;;;;;;20.01;100.00;92230.19;4812855;29;20418;-78
2023/07/20 02:09:59;;;;;;;30.20;10.63;;;;;;;19.91;100.00;92231.53;4813473;29;20048;-79
2023/07/20 02:12:24;;;;;;;29.80;10.60;;;;;;;19.86;100.00;92237.91;4810893;29;20050;-80
2023/07/20 02:14:51;;;;;;;25.83;11.40;;;;;;;19.87;100.00;92241.31;4817105;29;20044;-80
2023/07/20 02:17:16;;;;;;;19.73;10.10;;;;;;;19.84;100.00;92242.78;4819700;29;20374;-80
2023/07/20 02:19:42;;;;;;;23.42;9.68;;;;;;;19.82;100.00;92246.91;4811083;29;20129;-80
2023/07/20 02:22:08;;;;;;;23.33;10.52;;;;;;;19.78;100.00;92243.41;4821766;29;20083;-80
2023/07/20 02:24:34;;;;;;;22.77;9.88;;;;;;;19.73;100.00;92247.88;4828520;29;20051;-80
2023/07/20 02:26:59;;;;;;;22.50;10.13;;;;;;;19.69;100.00;92236.41;4824928;29;20035;-80
2023/07/20 02:29:25;;;;;;;22.08;10.20;;;;;;;19.64;100.00;92244.63;4828647;29;20034;-80
2023/07/20 02:31:50;;;;;;;20.50;10.50;;;;;;;19.60;100.00;92241.13;4814090;29;20091;-78
2023/07/20 02:34:16;;;;;;;21.95;10.98;;;;;;;19.61;100.00;92245.34;4816751;29;20039;-79
2023/07/20 02:36:42;;;;;;;22.88;10.05;;;;;;;19.53;100.00;92247.06;4828709;29;20049;-80
2023/07/20 02:39:08;;;;;;;19.83;10.52;;;;;;;19.49;100.00;92245.44;4818470;29;20103;-79
2023/07/20 02:41:34;;;;;;;19.88;10.00;;;;;;;19.38;100.00;92247.09;4816347;29;20057;-80
2023/07/20 02:44:01;;;;;;;22.02;9.57;;;;;;;19.32;100.00;92247.38;4821008;29;20053;-79
2023/07/20 02:46:26;;;;;;;22.98;9.88;;;;;;;19.31;100.00;92248.47;4825247;29;20053;-79
2023/07/20 02:48:52;;;;;;;23.27;10.05;;;;;;;19.25;100.00;92247.22;4822980;29;20181;-78
2023/07/20 02:51:17;;;;;;;19.10;9.32;;;;;;;19.16;100.00;92249.25;4821755;29;20038;-80
2023/07/20 02:53:43;;;;;;;22.63;9.07;;;;;;;19.09;100.00;92241.94;4823830;29;20142;-79
2023/07/20 02:56:09;;;;;;;17.45;8.35;;;;;;;18.92;100.00;92243.06;4825481;29;20065;-80
2023/07/20 02:58:37;;;;;;;21.73;8.95;;;;;;;18.89;100.00;92248.25;4816619;29;20049;-79
2023/07/20 03:01:03;;;;;;;26.15;7.88;;;;;;;18.81;100.00;92242.03;4817223;29;20058;-80
2023/07/20 03:03:28;;;;;;;23.30;8.73;;;;;;;18.75;100.00;92253.97;4820205;29;20045;-79
2023/07/20 03:05:55;;;;;;;18.65;8.07;;;;;;;18.69;100.00;92253.47;4821906;29;20451;-79
2023/07/20 03:08:22;;;;;;;18.10;7.70;;;;;;;18.56;100.00;92256.53;4825946;29;20516;-79
2023/07/20 03:10:47;;;;;;;17.00;7.97;;;;;;;18.52;100.00;92253.78;4824101;29;20053;-78
2023/07/20 03:13:14;;;;;;;19.42;8.48;;;;;;;18.47;100.00;92260.13;4824926;29;20039;-80
2023/07/20 03:15:39;;;;;;;26.08;8.70;;;;;;;18.45;100.00;92257.03;4817440;29;20128;-79
2023/07/20 03:18:05;;;;;;;15.70;6.70;;;;;;;18.47;100.00;92262.75;4815672;29;20125;-79
2023/07/20 03:20:31;;;;;;;15.95;6.45;;;;;;;18.46;100.00;92257.78;4822533;29;20034;-80
2023/07/20 03:22:57;;;;;;;11.77;6.22;;;;;;;18.44;100.00;92260.81;4823177;29;20479;-79
2023/07/20 03:25:22;;;;;;;13.55;6.28;;;;;;;18.44;100.00;92267.97;4830300;29;20285;-80
2023/07/20 03:27:48;;;;;;;13.73;6.47;;;;;;;18.46;100.00;92268.41;4812691;29;20043;-80
2023/07/20 03:30:14;;;;;;;16.55;6.32;;;;;;;18.46;100.00;92268.41;4813274;29;20049;-80
2023/07/20 03:32:40;;;;;;;15.25;6.63;;;;;;;18.49;100.00;92262.44;4820138;29;20039;-80
2023/07/20 03:35:06;;;;;;;16.35;7.13;;;;;;;18.54;100.00;92261.41;4816735;29;20039;-79
2023/07/20 03:37:34;;;;;;;22.30;7.68;;;;;;;18.55;100.00;92266.34;4821991;29;20046;-79
2023/07/20 03:40:00;;;;;;;13.68;7.30;;;;;;;18.58;100.00;92276.28;4816969;29;20162;-79
2023/07/20 03:42:25;;;;;;;18.88;7.13;;;;;;;18.49;100.00;92279.09;4831025;29;20034;-79
2023/07/20 03:44:52;;;;;;;19.85;7.70;;;;;;;18.39;100.00;92274.28;4813072;29;20043;-79
2023/07/20 03:47:17;;;;;;;16.40;7.80;;;;;;;18.36;100.00;92279.50;4818033;29;20415;-79
2023/07/20 03:49:43;;;;;;;21.55;7.78;;;;;;;18.30;100.00;92271.00;4817746;29;20038;-79
2023/07/20 03:52:09;;;;;;;15.20;7.68;;;;;;;18.28;100.00;92273.22;4824344;29;20053;-79
2023/07/20 03:54:34;;;;;;;16.77;7.80;;;;;;;18.28;100.00;92270.59;4825078;29;20492;-79
2023/07/20 03:57:00;;;;;;;18.05;8.98;;;;;;;18.29;100.00;92269.50;4812999;29;20134;-80
2023/07/20 03:59:26;;;;;;;26.77;8.75;;;;;;;18.23;100.00;92271.59;4816629;29;20042;-79
2023/07/20 04:01:52;;;;;;;16.27;7.50;;;;;;;18.22;100.00;92277.25;4819727;29;20060;-79
2023/07/20 04:04:18;;;;;;;20.67;8.70;;;;;;;18.19;100.00;92272.63;4815588;29;20037;-79
2023/07/20 04:06:46;;;;;;;14.35;6.72;;;;;;;18.19;100.00;92277.91;4819715;29;20529;-79
2023/07/20 04:09:12;;;;;;;18.63;6.63;;;;;;;18.18;100.00;92282.44;4815876;29;20329;-80
2023/07/20 04:11:39;;;;;;;13.15;6.13;;;;;;;18.19;100.00;92276.03;4800784;29;20055;-80
2023/07/20 04:14:04;;;;;;;10.63;5.15;;;;;;;18.19;100.00;92281.31;4821080;29;20497;-80
2023/07/20 04:16:30;;;;;;;14.30;6.20;;;;;;;18.16;100.00;92286.53;4830814;29;20094;-78
2023/07/20 04:18:56;;;;;;;17.88;6.80;;;;;;;18.17;100.00;92282.78;4824049;29;20418;-78
2023/07/20 04:21:22;;;;;;;13.50;6.60;;;;;;;18.17;100.00;92282.78;4825908;29;20034;-78
2023/07/20 04:23:48;;;;;;;16.90;7.18;;;;;;;18.16;100.00;92283.91;4826196;29;20049;-79
2023/07/20 04:26:14;;;;;;;17.88;6.70;;;;;;;18.12;100.00;92286.44;4820099;29;20062;-79
2023/07/20 04:28:42;;;;;;;14.02;6.45;;;;;;;18.08;100.00;92278.41;4818567;29;20039;-80
2023/07/20 04:31:15;;;;;;;18.20;6.80;;;;;;;18.16;100.00;92283.91;4813323;29;20054;-78
2023/07/20 04:33:42;;;;;;;19.00;7.60;;;;;;;18.36;100.00;92290.09;4827003;29;20578;-77
2023/07/20 04:36:09;;;;;;;16.75;8.15;;;;;;;18.34;100.00;92287.78;4809539;29;20134;-76
2023/07/20 04:38:35;;;;;;;19.73;7.53;;;;;;;18.36;100.00;92282.16;4823987;29;20050;-79
2023/07/20 04:41:12;;;;;;;21.90;7.82;;;;;;;18.35;100.00;92289.34;4813302;29;20043;-79
2023/07/20 04:43:42;;;;;;;25.63;7.40;;;;;;;18.40;100.00;92289.09;4800407;29;20099;-79
2023/07/20 04:46:10;;;;;;;13.05;6.80;;;;;;;18.43;100.00;92295.59;4809575;29;20065;-79
2023/07/20 04:48:36;;;;;;;16.70;6.75;;;;;;;18.43;100.00;92288.41;4812387;29;20027;-80
2023/07/20 04:51:03;;;;;;;14.35;6.60;;;;;;;18.45;100.00;92294.13;4817544;29;20534;-79
2023/07/20 04:53:28;;;;;;;15.13;6.00;;;;;;;18.44;100.00;92294.47;4809681;29;20054;-79
2023/07/20 04:55:55;;;;;;;14.07;6.13;;;;;;;18.43;100.00;92284.97;4815648;29;20043;-78
2023/07/20 04:58:23;;;;;;;16.85;6.10;;;;;;;18.41;100.00;92287.97;4808797;29;20043;-78
2023/07/20 05:00:49;;;;;;;14.10;5.82;;;;;;;18.45;100.00;92293.38;4802127;29;20196;-78
2023/07/20 05:03:15;;;;;;;12.98;6.15;;;;;;;18.47;100.00;92291.91;4784980;29;20522;-78
2023/07/20 05:05:41;;;;;;;12.35;5.55;;;;;;;18.53;100.00;92295.09;4808889;29;20043;-78
2023/07/20 05:08:07;;;;;;;11.27;5.65;;;;;;;18.57;100.00;92289.88;4809774;29;20050;-78
2023/07/20 05:10:33;;;;;;;13.75;5.45;;;;;;;18.60;99.39;92289.19;4811461;29;20100;-78
2023/07/20 05:12:59;;;;;;;10.32;5.30;;;;;;;18.63;96.11;92289.28;4812653;29;20043;-79
2023/07/20 05:15:25;;;;;;;10.43;4.97;;;;;;;18.67;98.70;92284.09;4814328;29;20078;-79
2023/07/20 05:17:52;;;;;;;11.68;4.90;;;;;;;18.71;96.67;92280.41;4797060;29;20027;-79
2023/07/20 05:20:17;;;;;;;13.20;5.65;;;;;;;18.78;94.22;92285.16;4823370;29;20102;-79
2023/07/20 05:22:43;;;;;;;11.25;5.07;;;;;;;18.83;93.19;92287.53;4831738;29;20046;-78
2023/07/20 05:25:11;;;;;;;12.38;5.15;;;;;;;18.89;93.42;92286.19;4832043;29;20046;-79
2023/07/20 05:27:37;;;;;;;12.40;5.32;;;;;;;18.97;96.03;92291.66;4832142;29;20524;-79
2023/07/20 05:30:04;;;;;;;11.27;5.28;;;;;;;19.03;96.30;92296.34;4830364;29;20043;-79
2023/07/20 05:32:30;;;;;;;8.65;4.93;;;;;;;19.09;97.30;92299.50;4830718;29;20038;-79
2023/07/20 05:34:55;;;;;;;15.70;5.90;;;;;;;19.19;99.79;92290.28;4816426;29;20391;-77
2023/07/20 05:37:21;;;;;;;11.93;6.10;;;;;;;19.25;100.00;92297.63;4812928;29;20562;-79
2023/07/20 05:39:47;;;;;;;12.20;5.60;;;;;;;19.33;100.00;92296.66;4809494;29;20110;-79
2023/07/20 05:42:13;;;;;;;10.25;5.57;;;;;;;19.39;100.00;92291.13;4812969;29;20037;-79
2023/07/20 05:44:40;;;;;;;17.50;6.50;;;;;;;19.51;99.78;92291.00;4812059;29;20039;-79
2023/07/20 05:47:05;;;;;;;13.48;5.38;;;;;;;19.58;98.36;92291.13;4812078;29;20051;-80
2023/07/20 05:49:31;;;;;;;13.15;5.40;;;;;;;19.65;94.17;92293.94;4810869;29;20046;-80
2023/07/20 05:51:57;;;;;;;12.68;5.40;;;;;;;19.72;92.74;92291.50;4812076;29;20041;-79
2023/07/20 05:54:25;;;;;;;10.20;5.40;;;;;;;19.83;92.11;92288.28;4812252;29;20047;-80
2023/07/20 05:56:51;;;;;;;12.35;5.00;;;;;;;19.99;86.77;92299.59;4811594;29;20094;-79
2023/07/20 05:59:16;;;;;;;11.25;5.22;;;;;;;20.54;84.06;92294.97;4811404;29;20073;-80
2023/07/20 06:01:44;;;;;;;9.27;4.68;;;;;;;21.46;77.56;92298.78;4811285;29;20073;-80
2023/07/20 06:04:09;;;;;;;11.45;4.80;;;;;;;22.39;69.45;92300.03;4809631;29;20501;-78
2023/07/20 06:06:35;;;;;;;10.13;4.88;;;;;;;23.35;64.61;92291.41;4792763;29;20072;-80
2023/07/20 06:09:05;;;;;;;12.63;5.18;;;;;;;24.01;68.14;92288.81;4779567;29;20065;-77
2023/07/20 06:11:31;;;;;;;18.08;5.68;;;;;;;24.71;68.37;92295.56;4812817;29;20039;-78
2023/07/20 06:13:57;;;;;;;21.73;6.93;;;;;;;25.16;79.01;92289.91;4820250;29;20405;-78
2023/07/20 06:16:23;;;;;;;15.20;6.38;;;;;;;25.56;78.35;92293.38;4832549;29;20061;-78
2023/07/20 06:18:48;;;;;;;17.90;7.18;;;;;;;25.71;80.36;92292.22;4816317;29;20126;-79
2023/07/20 06:21:14;;;;;;;15.23;6.50;;;;;;;25.92;79.93;92294.13;4829868;29;20133;-78
2023/07/20 06:23:41;;;;;;;17.08;5.50;;;;;;;26.43;60.33;92299.31;4833092;29;20055;-78
2023/07/20 06:26:07;;;;;;;13.13;6.88;;;;;;;26.85;66.97;92286.84;4835768;29;20045;-79
2023/07/20 06:28:33;;;;;;;18.80;7.10;;;;;;;26.71;66.10;92287.72;4835243;29;20086;-80
2023/07/20 06:31:03;;;;;;;11.98;7.00;;;;;;;27.19;65.74;92289.69;4811354;29;20043;-80
2023/07/20 06:33:29;;;;;;;18.65;6.57;;;;;;;27.29;67.86;92286.22;4796678;30;20048;-80
2023/07/20 06:35:56;;;;;;;14.18;6.45;;;;;;;27.69;67.83;92278.56;4812687;29;20039;-80
2023/07/20 06:38:23;;;;;;;12.00;5.93;;;;;;;28.10;63.62;92285.88;4812820;29;20535;-80
2023/07/20 06:40:49;;;;;;;12.75;6.57;;;;;;;28.16;58.04;92289.63;4832589;29;20041;-82
2023/07/20 06:43:16;;;;;;;15.93;6.38;;;;;;;27.32;57.21;92292.72;4831794;29;20535;-81
2023/07/20 06:45:42;;;;;;;12.65;6.05;;;;;;;26.84;59.79;92285.31;4826503;29;20043;-80
2023/07/20 06:48:07;;;;;;;17.10;6.30;;;;;;;26.98;65.03;92282.56;4778509;30;20058;-79
2023/07/20 06:50:33;;;;;;;11.02;5.63;;;;;;;26.93;60.56;92288.31;4777401;30;20396;-80
2023/07/20 06:53:03;;;;;;;15.32;6.55;;;;;;;27.01;66.33;92287.13;4780006;30;20051;-80
2023/07/20 06:55:28;;;;;;;13.60;6.20;;;;;;;26.34;72.20;92286.31;4788431;29;20048;-81
2023/07/20 06:57:54;;;;;;;18.00;7.93;;;;;;;26.16;78.86;92281.00;4786944;29;20043;-80
2023/07/20 07:00:20;;;;;;;16.38;7.50;;;;;;;25.92;80.86;92288.00;4784991;29;20043;-80
2023/07/20 07:02:45;;;;;;;18.95;7.38;;;;;;;25.40;82.22;92285.75;4792299;29;20732;-83
2023/07/20 07:05:13;;;;;;;18.17;7.20;;;;;;;24.61;86.19;92274.13;4783857;29;20062;-81
2023/07/20 07:07:39;;;;;;;15.18;7.43;;;;;;;24.13;90.71;92271.66;4805600;29;20114;-82
2023/07/20 07:10:05;;;;;;;17.85;7.38;;;;;;;23.90;93.71;92278.81;4792324;29;20112;-80
2023/07/20 07:12:31;;;;;;;14.63;6.93;;;;;;;23.88;95.78;92275.00;4791765;29;20039;-82
2023/07/20 07:14:56;;;;;;;13.20;6.50;;;;;;;23.86;93.46;92275.34;4794948;29;20522;-82
2023/07/20 07:17:22;;;;;;;19.42;7.72;;;;;;;24.03;93.67;92267.81;4792389;29;20101;-82
2023/07/20 07:19:48;;;;;;;16.83;7.35;;;;;;;23.99;94.32;92277.72;4790289;29;20111;-81
2023/07/20 07:22:13;;;;;;;13.52;6.95;;;;;;;24.19;94.34;92268.25;4797109;29;20043;-81
2023/07/20 07:24:41;;;;;;;14.10;6.70;;;;;;;24.54;77.05;92272.22;4798578;29;20068;-80
2023/07/20 07:27:08;;;;;;;11.80;5.57;;;;;;;24.86;69.19;92269.63;4801816;29;20035;-79
2023/07/20 07:29:34;;;;;;;12.52;5.50;;;;;;;25.28;73.77;92278.06;4794709;30;20500;-82
2023/07/20 07:32:01;;;;;;;12.32;5.85;;;;;;;25.51;78.29;92281.13;4800209;29;20043;-81
2023/07/20 07:34:27;;;;;;;13.15;6.65;;;;;;;25.40;79.46;92285.75;4795662;29;20035;-81
2023/07/20 07:36:53;;;;;;;13.00;5.60;;;;;;;25.05;63.86;92276.50;4806085;29;20076;-81
2023/07/20 07:39:19;;;;;;;13.18;7.00;;;;;;;25.10;79.29;92273.44;4815028;29;20102;-81
2023/07/20 07:41:45;;;;;;;15.13;7.70;;;;;;;24.99;87.86;92277.25;4799189;29;20039;-81
2023/07/20 07:44:11;;;;;;;15.02;7.68;;;;;;;24.93;89.54;92274.22;4811594;29;20068;-80
2023/07/20 07:46:37;;;;;;;14.55;7.05;;;;;;;24.73;88.66;92279.91;4814544;29;20057;-80
2023/07/20 07:49:02;;;;;;;17.65;7.20;;;;;;;24.70;91.17;92280.69;4814528;29;20122;-80
2023/07/20 07:51:28;;;;;;;14.88;7.03;;;;;;;24.57;89.13;92279.50;4816022;29;20038;-80
2023/07/20 07:53:54;;;;;;;18.98;6.90;;;;;;;24.64;90.04;92278.75;4815789;29;20035;-81
2023/07/20 07:56:23;;;;;;;19.40;6.72;;;;;;;24.38;87.97;92272.50;4819453;29;20038;-81
2023/07/20 07:58:51;;;;;;;13.00;6.05;;;;;;;24.05;87.62;92271.63;4833827;29;20447;-80
2023/07/20 08:01:18;;;;;;;13.65;5.65;;;;;;;24.12;84.31;92276.25;4825120;29;20034;-80
2023/07/20 08:03:47;;;;;;;11.25;5.88;;;;;;;23.94;84.91;92272.75;4816886;29;20043;-79
2023/07/20 08:06:13;;;;;;;11.57;6.25;;;;;;;23.82;86.00;92279.16;4822753;29;20087;-80
2023/07/20 08:08:39;;;;;;;11.80;6.10;;;;;;;24.00;82.00;92282.69;4815210;29;20088;-80
2023/07/20 08:11:05;;;;;;;11.32;5.53;;;;;;;23.85;83.17;92279.19;4828461;29;20042;-81
2023/07/20 08:13:31;;;;;;;14.68;6.15;;;;;;;23.93;82.60;92276.53;4815508;29;20039;-81
2023/07/20 08:15:57;;;;;;;14.88;6.13;;;;;;;24.14;80.08;92283.88;4827543;29;20125;-79
2023/07/20 08:18:23;;;;;;;10.80;5.80;;;;;;;24.05;79.43;92289.59;4826763;29;20050;-81
2023/07/20 08:20:49;;;;;;;10.15;5.90;;;;;;;24.01;82.83;92291.47;4833530;29;20038;-81
2023/07/20 08:23:15;;;;;;;12.60;5.85;;;;;;;24.21;82.39;92283.94;4833527;29;20073;-81
2023/07/20 08:25:43;;;;;;;14.13;5.78;;;;;;;24.16;79.84;92284.28;4816871;29;20041;-81
2023/07/20 08:28:16;;;;;;;9.63;5.32;;;;;;;24.27;79.10;92299.25;4833122;29;20038;-81
2023/07/20 08:30:43;;;;;;;12.07;5.28;;;;;;;24.37;80.80;92295.06;4808185;29;20122;-81
2023/07/20 08:33:10;;;;;;;10.50;5.30;;;;;;;24.63;78.72;92294.03;4814146;29;20103;-80
2023/07/20 08:35:36;;;;;;;10.45;5.35;;;;;;;24.64;75.31;92295.56;4822586;29;20075;-81
2023/07/20 08:38:01;;;;;;;9.77;4.85;;;;;;;24.48;76.02;92292.47;4818541;29;20094;-81
2023/07/20 08:40:27;;;;;;;13.38;5.85;;;;;;;24.54;76.09;92293.63;4817858;29;20054;-80
2023/07/20 08:42:54;;;;;;;15.85;5.88;;;;;;;24.63;73.74;92290.56;4817358;29;20071;-80
2023/07/20 08:45:22;;;;;;;11.05;5.22;;;;;;;24.65;71.21;92299.75;4826572;29;20072;-81
2023/07/20 08:47:49;;;;;;;10.95;5.53;;;;;;;24.68;71.96;92308.97;4820901;29;20578;-80
2023/07/20 08:50:16;;;;;;;9.55;4.82;;;;;;;24.70;70.09;92299.41;4815827;29;20042;-80
2023/07/20 08:52:41;;;;;;;12.70;5.70;;;;;;;24.52;67.43;92298.59;4815156;29;20039;-80
2023/07/20 08:55:07;;;;;;;11.88;5.82;;;;;;;24.49;70.75;92299.34;4814931;29;20071;-80
2023/07/20 08:57:34;;;;;;;13.45;5.10;;;;;;;24.36;69.84;92298.88;4816266;29;20130;-81
2023/07/20 09:00:07;;;;;;;10.05;5.18;;;;;;;24.75;69.13;92298.28;4823472;29;20038;-80
2023/07/20 09:02:37;;;;;;;12.82;5.70;;;;;;;24.78;66.29;92288.72;4815682;29;20042;-80
2023/07/20 09:05:04;;;;;;;7.93;5.22;;;;;;;24.85;70.51;92302.09;4815760;29;20102;-80
2023/07/20 09:07:30;;;;;;;10.98;5.40;;;;;;;24.90;70.69;92301.72;4819682;29;20061;-80
2023/07/20 09:09:57;;;;;;;10.45;5.10;;;;;;;24.79;67.30;92307.09;4820975;29;20060;-81
2023/07/20 09:12:23;;;;;;;13.75;5.00;;;;;;;24.91;67.80;92313.97;4824351;29;20027;-79
2023/07/20 09:14:49;;;;;;;10.40;5.50;;;;;;;24.88;69.37;92302.13;4818866;29;20543;-80
2023/07/20 09:17:15;;;;;;;11.10;5.50;;;;;;;24.83;66.31;92296.38;4822543;29;20038;-81
2023/07/20 09:19:48;;;;;;;11.93;5.65;;;;;;;24.83;67.39;92291.00;4815464;29;20095;-80
2023/07/20 09:22:14;;;;;;;10.70;5.38;;;;;;;24.84;68.76;92292.56;4827681;29;20074;-80
2023/07/20 09:24:41;;;;;;;10.45;5.50;;;;;;;24.99;66.57;92290.66;4818976;29;20034;-80
2023/07/20 09:27:07;;;;;;;13.38;4.60;;;;;;;25.09;64.61;92287.22;4831632;29;20042;-81
2023/07/20 09:29:32;;;;;;;11.88;5.38;;;;;;;25.13;64.19;92288.75;4833861;29;20045;-80
2023/07/20 09:32:02;;;;;;;11.57;5.00;;;;;;;25.27;63.41;92288.03;4825489;29;20055;-80
2023/07/20 09:34:32;;;;;;;12.27;4.97;;;;;;;25.34;63.22;92295.28;4828373;29;20042;-80
2023/07/20 09:36:59;;;;;;;8.45;4.50;;;;;;;25.46;62.56;92291.47;4822979;29;20042;-80
2023/07/20 09:39:25;;;;;;;11.60;5.10;;;;;;;25.70;61.59;92287.22;4814892;29;20041;-79
2023/07/20 09:41:51;;;;;;;10.23;5.25;;;;;;;25.46;59.49;92280.75;4812781;29;20556;-78
2023/07/20 09:44:18;;;;;;;9.07;5.25;;;;;;;25.58;64.82;92284.94;4825240;29;20582;-79
2023/07/20 09:46:48;;;;;;;10.40;4.63;;;;;;;25.59;61.97;92286.47;4823606;29;20069;-79
2023/07/20 09:49:14;;;;;;;8.90;4.70;;;;;;;25.53;57.31;92292.25;4822537;29;20046;-81
2023/07/20 09:51:40;;;;;;;11.95;5.07;;;;;;;25.55;58.28;92289.16;4826301;29;20411;-79
2023/07/20 09:54:06;;;;;;;10.57;5.22;;;;;;;25.70;59.02;92281.88;4812987;29;20060;-80
2023/07/20 09:56:33;;;;;;;10.80;5.30;;;;;;;25.88;59.56;92293.34;4802942;29;20043;-80
2023/07/20 09:58:59;;;;;;;9.18;5.25;;;;;;;25.92;56.63;92288.00;4798021;29;20035;-81
2023/07/20 10:01:27;;;;;;;9.52;5.00;;;;;;;26.09;56.57;92295.19;4802207;29;20039;-79
2023/07/20 10:03:54;;;;;;;10.13;5.05;;;;;;;26.16;55.99;92283.69;4804778;29;20122;-80
2023/07/20 10:06:24;;;;;;;11.35;4.88;;;;;;;26.45;54.02;92286.25;4806299;29;20035;-80
2023/07/20 10:08:53;;;;;;;10.77;4.60;;;;;;;26.61;55.09;92283.16;4804989;29;20058;-80
2023/07/20 10:11:21;;;;;;;8.50;4.68;;;;;;;26.85;55.23;92281.50;4800256;29;20039;-80
2023/07/20 10:13:51;;;;;;;8.45;4.75;;;;;;;26.98;52.40;92280.63;4798234;29;20156;-80
2023/07/20 10:16:29;;;;;;;11.50;4.95;;;;;;;27.26;48.51;92278.16;4798734;29;20509;-80
2023/07/20 10:19:03;;;;;;;8.80;4.72;;;;;;;27.30;49.96;92282.34;4798271;29;20042;-80
2023/07/20 10:21:29;;;;;;;9.27;4.47;;;;;;;27.08;49.79;92276.34;4802999;29;20030;-80
2023/07/20 10:23:59;;;;;;;8.20;4.57;;;;;;;27.31;49.59;92269.66;4803707;29;20622;-80
2023/07/20 10:26:26;;;;;;;7.95;4.72;;;;;;;27.28;48.86;92271.22;4803921;29;20503;-78
2023/07/20 10:28:52;;;;;;;10.30;4.47;;;;;;;27.47;47.79;92269.94;4803617;29;20118;-79
2023/07/20 10:31:19;;;;;;;9.63;4.68;;;;;;;27.67;49.67;92274.75;4805777;29;20681;-80
2023/07/20 10:33:45;;;;;;;10.45;4.90;;;;;;;27.72;47.04;92263.53;4802936;29;20041;-79
2023/07/20 10:36:12;;;;;;;9.32;5.00;;;;;;;27.41;47.42;92258.09;4786099;29;20493;-80
2023/07/20 10:38:40;;;;;;;11.27;5.50;;;;;;;27.15;49.41;92257.47;4788136;29;20038;-79
2023/07/20 10:41:29;;;;;;;9.57;5.35;;;;;;;27.25;54.01;92253.22;4809187;29;20050;-80
2023/07/20 10:44:01;;;;;;;10.80;5.10;;;;;;;27.03;52.22;92263.34;4805050;29;20034;-78
2023/07/20 10:46:40;;;;;;;8.82;4.88;;;;;;;26.85;54.02;92250.03;4804393;29;20043;-79
2023/07/20 10:49:07;;;;;;;7.93;4.22;;;;;;;26.61;53.05;92254.38;4809924;29;20045;-79
2023/07/20 10:51:43;;;;;;;10.02;4.55;;;;;;;26.59;55.22;92254.00;4817370;29;20551;-76
2023/07/20 10:54:29;;;;;;;9.35;5.05;;;;;;;26.93;55.07;92256.88;4820615;29;20363;-78
2023/07/20 10:57:18;;;;;;;8.88;4.93;;;;;;;26.94;53.22;92260.31;4810716;29;20042;-78
2023/07/20 10:59:47;;;;;;;9.48;4.63;;;;;;;27.00;51.73;92256.06;4820527;29;20043;-78
2023/07/20 11:02:12;;;;;;;9.05;4.72;;;;;;;27.09;52.96;92259.06;4808171;29;20031;-78
2023/07/20 11:04:42;;;;;;;9.38;5.10;;;;;;;27.05;51.67;92260.25;4808935;29;20523;-78
2023/07/20 11:07:09;;;;;;;10.40;4.70;;;;;;;26.90;49.86;92254.22;4823230;29;20078;-79
2023/07/20 11:09:38;;;;;;;11.73;5.10;;;;;;;27.20;49.74;92251.72;4807600;29;20072;-79
2023/07/20 11:12:11;;;;;;;9.50;4.70;;;;;;;27.47;50.75;92245.75;4809392;29;20051;-80
2023/07/20 11:14:54;;;;;;;8.63;4.68;;;;;;;27.73;53.40;92251.63;4807348;29;20045;-80
2023/07/20 11:17:22;;;;;;;13.32;4.88;;;;;;;27.90;51.43;92247.25;4805829;29;20490;-78
2023/07/20 11:19:49;;;;;;;7.68;4.60;;;;;;;27.71;49.35;92245.91;4807868;29;20034;-80
2023/07/20 11:22:17;;;;;;;8.27;4.72;;;;;;;27.76;51.86;92242.75;4807445;29;20042;-77
2023/07/20 11:24:43;;;;;;;9.27;5.05;;;;;;;28.03;50.59;92243.69;4800454;29;20046;-84